Mint Hill, Missouri
Current Conditions -  °F | °C
As of 6:53 PM on Wednesday 22 Oct 2014 (Local Time) from KJEF Reporting Station
Clear Clear  
Wind Chill: 57°   Ceiling: Unl
Heat Index: 57°   Visibility: 10mi
Dew Point: 42°   Wind: 3mph
Humidity: 57%   Direction: 110°ESE
Pressure: 30.18"   Gusts: NA
Location:  38.6366°N, 91.76°W
Report Text: KJEF 222353Z 11003KT 10SM CLR 14/06 A3018 RMK AO2 SLP209 T01390056 10200 20139 55003
Loading
Personal Weather Stations






























Interactive Weather Map
Tropical Storm Tracking
New forecast layout! Learn more

10-Day Weather Forecast

Advertisements
Track Severe Weather on mobile